Latest Weather Observations for Esperance Harbour

IDW60801

Issued at 8:53 pm WST Thursday 20 September 2018 (issued every 10 minutes, with the page automatically refreshed every 10 minutes)

About weather observations | Map of weather stations | Latest weather observations for WA | Other Formats
Station Details ID: 109504 Name: ESPERANCE NTC AWS Lat: -33.87 Lon: 121.90 Height: 0.0 m
Data from the previous 72 hours. | See also: Recent months for locations in Western Australia
Date/Time
WST
Temp
°C
App
Temp
°C
Dew
Point
°C
Rel
Hum
%
Delta-T
°C
Wind Press
QNH
hPa
Press
MSL
hPa
Rain since
9am
mm
Dir  Spd
km/h
Gust
km/h
Spd
kts
Gust
kts
20/08:30pm 15.7 - - - - - - - - - 1021.5 1021.4 -
20/08:00pm 16.1 - - - - - - - - - 1021.5 1021.4 -
20/07:30pm 16.6 - - - - - - - - - 1021.3 1021.2 -
20/07:00pm 17.1 - - - - - - - - - 1021.1 1021.0 -
20/06:30pm 17.2 - - - - - - - - - 1020.6 1020.6 -
20/06:00pm 17.6 - - - - - - - - - 1020.5 1020.5 -
20/05:30pm 18.4 - - - - - - - - - 1020.3 1020.3 -
20/05:00pm 18.8 - - - - - - - - - 1020.2 1020.2 -
20/04:30pm 18.8 - - - - - - - - - 1020.1 1020.1 -
20/04:00pm 18.7 - - - - - - - - - 1020.1 1020.1 -
20/03:30pm 18.4 - - - - - - - - - 1020.3 1020.3 -
20/03:00pm 18.6 - - - - - - - - - 1020.6 1020.6 -
20/02:30pm 18.7 - - - - - - - - - 1020.7 1020.7 -
20/02:00pm 19.1 - - - - - - - - - 1021.1 1021.0 -
20/01:30pm 18.9 - - - - - - - - - 1021.6 1021.5 -
20/01:00pm 18.9 - - - - - - - - - 1022.1 1022.0 -
20/12:30pm 19.4 - - - - - - - - - 1022.6 1022.5 -
20/12:00pm 17.8 - - - - - - - - - 1023.2 1023.1 -
20/11:30am 17.4 - - - - - - - - - 1023.8 1023.7 -
20/11:00am 16.8 - - - - - - - - - 1024.5 1024.4 -
20/10:30am 16.1 - - - - - - - - - 1025.1 1025.0 -
20/10:00am 15.2 - - - - - - - - - 1025.6 1025.5 -
20/09:30am 13.5 - - - - - - - - - 1026.0 1025.9 -
20/09:00am 12.8 - - - - - - - - - 1026.3 1026.2 -
20/08:30am 12.5 - - - - - - - - - 1026.7 1026.6 -
20/08:00am 12.3 - - - - - - - - - 1026.6 1026.5 -
20/07:30am 11.9 - - - - - - - - - 1026.5 1026.4 -
20/07:00am 11.0 - - - - - - - - - 1026.3 1026.2 -
20/06:30am 10.8 - - - - - - - - - 1026.0 1025.9 -
20/06:00am 10.6 - - - - - - - - - 1025.8 1025.7 -
20/05:30am 10.4 - - - - - - - - - 1025.6 1025.5 -
20/05:00am 10.1 - - - - - - - - - 1025.4 1025.3 -
20/04:30am 9.9 - - - - - - - - - 1025.2 1025.1 -
20/04:00am 9.7 - - - - - - - - - 1025.1 1025.0 -
20/03:30am 9.5 - - - - - - - - - 1025.1 1025.0 -
20/03:00am 9.4 - - - - - - - - - 1025.1 1025.0 -
20/02:30am 9.6 - - - - - - - - - 1025.2 1025.1 -
20/02:00am 9.8 - - - - - - - - - 1025.2 1025.1 -
20/01:30am 10.1 - - - - - - - - - 1025.4 1025.3 -
20/01:00am 10.6 - - - - - - - - - 1025.4 1025.3 -
20/12:30am 11.4 - - - - - - - - - 1025.5 1025.4 -
20/12:00am 11.7 - - - - - - - - - 1025.7 1025.6 -
 
Date/Time
WST
Temp
°C
App
Temp
°C
Dew
Point
°C
Rel
Hum
%
Delta-T
°C
Wind Press
QNH
hPa
Press
MSL
hPa
Rain since
9am
mm
Dir  Spd
km/h
Gust
km/h
Spd
kts
Gust
kts
19/11:30pm 12.1 - - - - - - - - - 1025.8 1025.7 -
19/11:00pm 12.1 - - - - - - - - - 1026.0 1025.9 -
19/10:30pm 12.6 - - - - - - - - - 1026.2 1026.1 -
19/10:00pm 13.1 - - - - - - - - - 1026.4 1026.3 -
19/09:30pm 13.7 - - - - - - - - - 1026.6 1026.5 -
19/09:00pm 13.3 - - - - - - - - - 1026.8 1026.7 -
19/08:30pm 13.6 - - - - - - - - - 1026.9 1026.8 -
19/08:00pm 13.6 - - - - - - - - - 1026.9 1026.8 -
19/07:30pm 13.8 - - - - - - - - - 1026.5 1026.4 -
19/07:00pm 14.1 - - - - - - - - - 1026.3 1026.2 -
19/06:30pm 14.2 - - - - - - - - - 1026.1 1026.0 -
19/06:00pm 14.3 - - - - - - - - - 1025.8 1025.7 -
19/05:30pm 14.7 - - - - - - - - - 1025.7 1025.6 -
19/05:00pm 15.1 - - - - - - - - - 1025.6 1025.5 -
19/04:30pm 15.1 - - - - - - - - - 1025.4 1025.3 -
19/04:00pm 15.1 - - - - - - - - - 1025.2 1025.1 -
19/03:30pm 15.4 - - - - - - - - - 1025.3 1025.2 -
19/03:00pm 15.7 - - - - - - - - - 1025.2 1025.1 -
19/02:30pm 15.5 - - - - - - - - - 1025.5 1025.4 -
19/02:00pm 15.7 - - - - - - - - - 1025.5 1025.4 -
19/01:30pm 16.2 - - - - - - - - - 1025.7 1025.6 -
19/01:00pm 15.8 - - - - - - - - - 1026.1 1026.0 -
19/12:30pm 15.5 - - - - - - - - - 1026.3 1026.2 -
19/12:00pm 15.1 - - - - - - - - - 1026.6 1026.5 -
19/11:30am 15.1 - - - - - - - - - 1026.9 1026.8 -
19/11:00am 15.2 - - - - - - - - - 1027.1 1027.0 -
19/10:30am 14.8 - - - - - - - - - 1027.2 1027.1 -
19/10:00am 14.4 - - - - - - - - - 1027.3 1027.2 -
19/09:30am 13.3 - - - - - - - - - 1027.4 1027.3 -
19/09:00am 13.3 - - - - - - - - - 1027.4 1027.3 -
19/08:30am 13.0 - - - - - - - - - 1027.3 1027.2 -
19/08:00am 12.8 - - - - - - - - - 1027.2 1027.1 -
19/07:30am 12.7 - - - - - - - - - 1027.0 1026.9 -
19/07:00am 12.5 - - - - - - - - - 1026.7 1026.6 -
19/06:30am 13.1 - - - - - - - - - 1026.4 1026.3 -
19/06:00am 13.2 - - - - - - - - - 1026.1 1026.0 -
19/05:30am 12.6 - - - - - - - - - 1025.9 1025.8 -
19/05:00am 12.9 - - - - - - - - - 1025.6 1025.5 -
19/04:30am 13.1 - - - - - - - - - 1025.4 1025.3 -
19/04:00am 12.8 - - - - - - - - - 1025.3 1025.2 -
19/03:30am 13.0 - - - - - - - - - 1025.1 1025.0 -
19/03:00am 13.2 - - - - - - - - - 1025.0 1024.9 -
19/02:30am 13.0 - - - - - - - - - 1024.9 1024.8 -
19/02:00am 13.3 - - - - - - - - - 1025.0 1024.9 -
19/01:30am 13.4 - - - - - - - - - 1025.4 1025.3 -
19/01:00am 13.3 - - - - - - - - - 1025.5 1025.4 -
19/12:30am 13.0 - - - - - - - - - 1025.6 1025.5 -
19/12:00am 13.4 - - - - - - - - - 1025.7 1025.6 -
 
Date/Time
WST
Temp
°C
App
Temp
°C
Dew
Point
°C
Rel
Hum
%
Delta-T
°C
Wind Press
QNH
hPa
Press
MSL
hPa
Rain since
9am
mm
Dir  Spd
km/h
Gust
km/h
Spd
kts
Gust
kts
18/11:30pm 13.8 - - - - - - - - - 1025.7 1025.6 -
18/11:00pm 14.0 - - - - - - - - - 1025.8 1025.7 -
18/10:30pm 13.6 - - - - - - - - - 1026.0 1025.9 -
18/10:00pm 14.0 - - - - - - - - - 1025.8 1025.7 -
18/09:30pm 13.9 - - - - - - - - - 1025.9 1025.8 -
18/09:00pm 13.7 - - - - - - - - - 1025.9 1025.8 -
18/08:30pm 13.5 - - - - - - - - - 1025.8 1025.7 -
18/08:00pm 13.7 - - - - - - - - - 1025.8 1025.7 -
18/07:30pm 13.8 - - - - - - - - - 1025.7 1025.6 -
18/07:00pm 14.2 - - - - - - - - - 1025.5 1025.4 -
18/06:30pm 14.5 - - - - - - - - - 1025.4 1025.3 -
18/06:00pm 14.0 - - - - - - - - - 1025.1 1025.0 -
18/05:30pm 14.5 - - - - - - - - - 1024.9 1024.8 -
18/05:00pm 14.6 - - - - - - - - - 1024.5 1024.4 -
18/04:30pm 15.3 - - - - - - - - - 1024.3 1024.2 -
18/04:00pm 15.4 - - - - - - - - - 1024.2 1024.1 -
18/03:30pm 15.3 - - - - - - - - - 1024.1 1024.0 -
18/03:00pm 15.6 - - - - - - - - - 1024.0 1023.9 -
18/02:30pm 15.0 - - - - - - - - - 1024.1 1024.0 -
18/02:00pm 15.8 - - - - - - - - - 1024.0 1023.9 -
18/01:30pm 15.6 - - - - - - - - - 1024.1 1024.0 -
18/01:00pm 15.9 - - - - - - - - - 1024.1 1024.0 -
18/12:30pm 15.9 - - - - - - - - - 1024.3 1024.2 -
18/12:00pm 15.8 - - - - - - - - - 1024.5 1024.4 -
18/11:30am 15.0 - - - - - - - - - 1024.8 1024.7 -
18/11:00am 14.6 - - - - - - - - - 1025.1 1025.0 -
18/10:30am 14.3 - - - - - - - - - 1025.0 1024.9 -
18/10:00am 14.8 - - - - - - - - - 1025.1 1025.0 -
18/09:30am 15.1 - - - - - - - - - 1025.0 1024.9 -
18/09:00am 15.0 - - - - - - - - - 1024.8 1024.7 -
18/08:30am 14.7 - - - - - - - - - 1024.4 1024.3 -
18/08:00am 14.1 - - - - - - - - - 1024.3 1024.2 -
18/07:30am 13.5 - - - - - - - - - 1024.1 1024.0 -
18/07:00am 13.1 - - - - - - - - - 1023.8 1023.7 -
18/06:30am 12.7 - - - - - - - - - 1023.5 1023.4 -
18/06:00am 13.1 - - - - - - - - - 1023.4 1023.3 -
18/05:30am 13.3 - - - - - - - - - 1022.8 1022.7 -
18/05:00am 13.4 - - - - - - - - - 1022.4 1022.3 -
18/04:30am 13.4 - - - - - - - - - 1022.2 1022.1 -
18/04:00am 13.3 - - - - - - - - - 1022.0 1021.9 -
18/03:30am 13.2 - - - - - - - - - 1021.9 1021.8 -
18/03:00am 12.9 - - - - - - - - - 1021.8 1021.7 -
18/02:30am 13.3 - - - - - - - - - 1021.8 1021.7 -
18/02:00am 13.3 - - - - - - - - - 1021.7 1021.6 -
18/01:30am 13.4 - - - - - - - - - 1021.9 1021.8 -
18/01:00am 13.4 - - - - - - - - - 1022.0 1021.9 -
18/12:30am 13.4 - - - - - - - - - 1022.0 1021.9 -
18/12:00am 13.4 - - - - - - - - - 1021.8 1021.7 -
 
Date/Time
WST
Temp
°C
App
Temp
°C
Dew
Point
°C
Rel
Hum
%
Delta-T
°C
Wind Press
QNH
hPa
Press
MSL
hPa
Rain since
9am
mm
Dir  Spd
km/h
Gust
km/h
Spd
kts
Gust
kts
17/11:30pm 13.5 - - - - - - - - - 1022.0 1021.9 -
17/11:00pm 13.6 - - - - - - - - - 1021.9 1021.8 -
17/10:30pm 13.6 - - - - - - - - - 1021.9 1021.8 -
17/10:00pm 13.6 - - - - - - - - - 1021.8 1021.7 -
17/09:30pm 13.4 - - - - - - - - - 1021.8 1021.7 -
17/09:00pm 13.4 - - - - - - - - - 1021.6 1021.5 -

Other Formats:

Comma delimited format used in spreadsheet applications
http://www.bom.gov.au/fwo/IDW60801/IDW60801.95648.axf

JavaScript Object Notation format (JSON) in row-major order
http://www.bom.gov.au/fwo/IDW60801/IDW60801.95648.json